Terminal Aerodrome Forecast
Issued by NWS

Current Version | Previous Version | Graphics & Text | Print | Product List | Glossary On
Versions: 1 2 3 4 5 6 7 8 9 10 11 12 13 14 15 16 17 18 19 20
866
FTUS41 KILN 180546
TAFLUK
TAF
KLUK 180546Z 1806/1906 29012KT P6SM OVC025
     FM181000 30004KT 3SM BR SCT025
      TEMPO 1810/1813 2SM BR
     FM181300 15007KT P6SM FEW015 SCT250
     FM190000 14009KT P6SM SCT250=

USA.gov is the U.S. government's official web portal to all federal, state and local government web resources and services.